Time,TemperatureF,DewpointF,PressureIn,WindDirection,WindDirectionDegrees,WindSpeedMPH,WindSpeedGustMPH,Humidity,HourlyPrecipIn,Conditions,Clouds,dailyrainin,SoftwareType,DateUTC
2013-05-31 01:50:00,81.0,-99.9,-100.00,North,353,2.0,2.0,-999,-99.99,,,-99.99,,2013-05-31 08:50:00,
2013-05-31 02:33:00,81.0,-99.9,-100.00,North,353,2.0,2.0,-999,-99.99,,,-99.99,,2013-05-31 09:33:00,
2013-05-31 02:40:00,80.0,-99.9,-100.00,NW,314,2.0,3.0,-999,-99.99,,,-99.99,,2013-05-31 09:40:00,
2013-05-31 02:43:00,81.0,-99.9,-100.00,North,353,2.0,2.0,-999,-99.99,,,-99.99,,2013-05-31 09:43:00,
2013-05-31 03:23:00,80.0,-99.9,-100.00,NW,314,2.0,3.0,-999,-99.99,,,-99.99,,2013-05-31 10:23:00,
2013-05-31 03:33:00,80.0,-99.9,-100.00,NW,314,2.0,3.0,-999,-99.99,,,-99.99,,2013-05-31 10:33:00,
2013-05-31 05:40:00,76.0,-99.9,-100.00,WNW,297,1.0,3.0,-999,-99.99,,,-99.99,,2013-05-31 12:40:00,
2013-05-31 06:22:00,76.0,-99.9,-100.00,WNW,297,1.0,3.0,-999,-99.99,,,-99.99,,2013-05-31 13:22:00,
2013-05-31 06:32:00,76.0,-99.9,-100.00,WNW,297,1.0,3.0,-999,-99.99,,,-99.99,,2013-05-31 13:32:00,
2013-05-31 08:10:00,85.0,-99.9,-100.00,NNW,333,0.0,0.0,-999,-99.99,,,-99.99,,2013-05-31 15:10:00,
2013-05-31 08:33:00,83.0,-99.9,-100.00,West,268,0.0,2.0,-999,-99.99,,,-99.99,,2013-05-31 15:33:00,
2013-05-31 08:43:00,83.0,-99.9,-100.00,West,268,0.0,2.0,-999,-99.99,,,-99.99,,2013-05-31 15:43:00,
2013-05-31 08:53:00,85.0,-99.9,-100.00,NNW,333,0.0,0.0,-999,-99.99,,,-99.99,,2013-05-31 15:53:00,
2013-05-31 09:03:00,85.0,-99.9,-100.00,NNW,333,0.0,0.0,-999,-99.99,,,-99.99,,2013-05-31 16:03:00,
2013-05-31 09:20:00,87.0,-99.9,-100.00,South,188,0.0,2.0,-999,-99.99,,,-99.99,,2013-05-31 16:20:00,
2013-05-31 10:00:00,88.0,-99.9,-100.00,SE,136,2.0,4.0,-999,-99.99,,,-99.99,,2013-05-31 17:00:00,
2013-05-31 10:02:00,87.0,-99.9,-100.00,South,188,0.0,2.0,-999,-99.99,,,-99.99,,2013-05-31 17:02:00,
2013-05-31 10:12:00,87.0,-99.9,-100.00,South,188,0.0,2.0,-999,-99.99,,,-99.99,,2013-05-31 17:12:00,
2013-05-31 10:32:00,87.0,-99.9,-100.00,East,87,8.0,8.0,-999,-99.99,,,-99.99,,2013-05-31 17:32:00,
2013-05-31 10:42:00,87.0,-99.9,-100.00,East,87,8.0,8.0,-999,-99.99,,,-99.99,,2013-05-31 17:42:00,
2013-05-31 10:52:00,88.0,-99.9,-100.00,SE,136,2.0,4.0,-999,-99.99,,,-99.99,,2013-05-31 17:52:00,
2013-05-31 13:52:00,97.0,-99.9,-100.00,East,81,4.0,11.0,-999,-99.99,,,-99.99,,2013-05-31 20:52:00,
2013-05-31 14:01:00,97.0,-99.9,-100.00,East,81,4.0,11.0,-999,-99.99,,,-99.99,,2013-05-31 21:01:00,
2013-05-31 14:54:00,101.0,-99.9,-100.00,SSE,162,2.0,8.0,-999,-99.99,,,-99.99,,2013-05-31 21:54:00,
2013-05-31 15:03:00,101.0,-99.9,-100.00,SSE,167,2.0,5.0,-999,-99.99,,,-99.99,,2013-05-31 22:03:00,
2013-05-31 15:12:00,101.0,-99.9,-100.00,SSE,167,2.0,5.0,-999,-99.99,,,-99.99,,2013-05-31 22:12:00,
2013-05-31 15:23:00,101.0,-99.9,-100.00,SSE,167,2.0,5.0,-999,-99.99,,,-99.99,,2013-05-31 22:23:00,
2013-05-31 15:40:00,101.0,-99.9,-100.00,SSE,156,2.0,6.0,-999,-99.99,,,-99.99,,2013-05-31 22:40:00,
2013-05-31 15:53:00,102.0,-99.9,-100.00,East,94,0.0,8.0,-999,-99.99,,,-99.99,,2013-05-31 22:53:00,
2013-05-31 16:02:00,101.0,-99.9,-100.00,East,79,7.0,9.0,-999,-99.99,,,-99.99,,2013-05-31 23:02:00,
2013-05-31 16:12:00,101.0,-99.9,-100.00,East,79,7.0,9.0,-999,-99.99,,,-99.99,,2013-05-31 23:12:00,
2013-05-31 16:22:00,101.0,-99.9,-100.00,SSE,156,2.0,6.0,-999,-99.99,,,-99.99,,2013-05-31 23:22:00,
2013-05-31 16:32:00,101.0,-99.9,-100.00,SSE,156,2.0,6.0,-999,-99.99,,,-99.99,,2013-05-31 23:32:00,
2013-05-31 18:50:00,97.0,-99.9,-100.00,East,87,3.0,3.0,-999,-99.99,,,-99.99,,2013-06-01 01:50:00,
2013-05-31 19:32:00,97.0,-99.9,-100.00,East,87,3.0,3.0,-999,-99.99,,,-99.99,,2013-06-01 02:32:00,
2013-05-31 19:42:00,97.0,-99.9,-100.00,East,87,3.0,3.0,-999,-99.99,,,-99.99,,2013-06-01 02:42:00,
2013-05-31 20:20:00,94.0,-99.9,-100.00,SSW,195,0.0,2.0,-999,-99.99,,,-99.99,,2013-06-01 03:20:00,
2013-05-31 20:33:00,95.0,-99.9,-100.00,ESE,123,2.0,3.0,-999,-99.99,,,-99.99,,2013-06-01 03:33:00,
2013-05-31 20:43:00,95.0,-99.9,-100.00,ESE,123,2.0,3.0,-999,-99.99,,,-99.99,,2013-06-01 03:43:00,
2013-05-31 20:53:00,94.0,-99.9,-100.00,ESE,114,2.0,5.0,-999,-99.99,,,-99.99,,2013-06-01 03:53:00,
2013-05-31 21:03:00,94.0,-99.9,-100.00,SSW,195,0.0,2.0,-999,-99.99,,,-99.99,,2013-06-01 04:03:00,
2013-05-31 21:13:00,94.0,-99.9,-100.00,SSW,195,0.0,2.0,-999,-99.99,,,-99.99,,2013-06-01 04:13:00,
2013-05-31 21:33:00,92.0,-99.9,-100.00,ENE,67,4.0,4.0,-999,-99.99,,,-99.99,,2013-06-01 04:33:00,
2013-05-31 21:42:00,92.0,-99.9,-100.00,ENE,67,4.0,4.0,-999,-99.99,,,-99.99,,2013-06-01 04:42:00,
2013-05-31 21:53:00,92.0,-99.9,-100.00,ENE,67,4.0,4.0,-999,-99.99,,,-99.99,,2013-06-01 04:53:00,
2013-05-31 22:22:00,92.0,-99.9,-100.00,West,271,0.0,8.0,-999,-99.99,,,-99.99,,2013-06-01 05:22:00,
2013-05-31 22:32:00,92.0,-99.9,-100.00,West,271,0.0,8.0,-999,-99.99,,,-99.99,,2013-06-01 05:32:00,
2013-05-31 22:50:00,88.0,-99.9,-100.00,WSW,250,5.0,10.0,-999,-99.99,,,-99.99,,2013-06-01 05:50:00,
2013-05-31 23:20:00,87.0,-99.9,-100.00,NW,315,0.0,9.0,-999,-99.99,,,-99.99,,2013-06-01 06:20:00,
2013-05-31 23:22:00,88.0,-99.9,-100.00,West,268,6.0,9.0,-999,-99.99,,,-99.99,,2013-06-01 06:22:00,
2013-05-31 23:32:00,88.0,-99.9,-100.00,WSW,250,5.0,10.0,-999,-99.99,,,-99.99,,2013-06-01 06:32:00,
2013-05-31 23:42:00,88.0,-99.9,-100.00,WSW,250,5.0,10.0,-999,-99.99,,,-99.99,,2013-06-01 06:42:00,